Terminal Aerodrome Forecast
Issued by NWS

Home | Current Version | Previous Version | Graphics & Text | Print | Product List | Glossary On
Versions: 1 2 3 4 5 6 7 8 9 10 11 12
588
FTUS43 KOAX 192320
TAFCDR
TAF
KCDR 192320Z 2000/2024 19015KT P6SM FEW250
     FM200800 21006KT P6SM SCT150=

USA.gov is the U.S. government's official web portal to all federal, state and local government web resources and services.